Olden, TX (76466)

10:35 AM CST on December 03, 2016 (GMT -0600)
EBAA IRON | | Change Station

Elev 1437 ft 32.37 °N, 98.77 °W | Updated 40 seconds ago

Rain
Rain
46.1 °F
Feels Like 46 °F
N
0.0
Wind Variable Wind from East

Today
High -- | Low -- °F
--% Chance of Precip.
Yesterday
High -- | Low -- °F
Precip. -- in
Pressure 30.10 in
Visibility 7.0 miles
Clouds Overcast 700 ft
Windchill 46 °F
Dew Point 45 °F
Humidity 96%
Rainfall 0.05 in
Snow Depth Not available.
7:20 AM 5:29 PM
Waxing Crescent, 16% visible
METAR KBKD 031615Z AUTO 04006KT 7SM -RA OVC007 09/09 A3010 RMK AO2 P0002 T00870085
Pressure 30.10 in
Visibility 7.0 miles
Clouds Overcast 700 ft
Windchill 46 °F
Dew Point 45 °F
Humidity 96%
Rainfall 0.05 in
Snow Depth Not available.
7:20 AM 5:29 PM
Waxing Crescent, 16% visible
METAR KBKD 031615Z AUTO 04006KT 7SM -RA OVC007 09/09 A3010 RMK AO2 P0002 T00870085

10-Day Weather Forecast

Almanac

Astronomy

Dec. 03, 2016 Rise Set
Actual Time
Civil Twilight
Nautical Twilight
Astronomical Twilight
Moon
Length of Visible Light
Length of Day
Tomorrow will be .
, % of the Moon is Illuminated

Today's Extremes

State Highs State Lows

Community

WunderPhotos

Upload Photos

1,955,440 photos uploaded!

WunderBlog® & News

Nearby

Air Quality

  Air Quality AQ Index Pollutant
Not available.

Snow Depth

Station Depth Elevation

Earthquake Activity

City Distance Mag. Time & Date
Minimum magnitude displayed is 2.5.

Coastal Water Temperatures

Place Temperature

Stations

Nearby Weather Stations

Station Location Temp. Windchill Dew Point Humidity Wind Precip. Elev Updated Type
                   

Watches & Warnings

There are currently no watches in effect.